sensor_id;sensor_type;location;lat;lon;timestamp;P1;durP1;ratioP1;P2;durP2;ratioP2
51981;SDS011;37998;53.416;6.730;2023-03-07T00:00:56;23.60;;;14.38;;
51981;SDS011;37998;53.416;6.730;2023-03-07T00:03:22;22.00;;;14.20;;
51981;SDS011;37998;53.416;6.730;2023-03-07T00:05:48;22.50;;;14.65;;
51981;SDS011;37998;53.416;6.730;2023-03-07T00:08:13;21.77;;;13.68;;
51981;SDS011;37998;53.416;6.730;2023-03-07T00:10:39;19.65;;;13.43;;
51981;SDS011;37998;53.416;6.730;2023-03-07T00:13:05;24.25;;;13.27;;
51981;SDS011;37998;53.416;6.730;2023-03-07T00:15:31;20.13;;;12.95;;
51981;SDS011;37998;53.416;6.730;2023-03-07T00:17:57;16.17;;;11.45;;
51981;SDS011;37998;53.416;6.730;2023-03-07T00:20:23;15.63;;;9.75;;
51981;SDS011;37998;53.416;6.730;2023-03-07T00:22:48;13.52;;;9.18;;
51981;SDS011;37998;53.416;6.730;2023-03-07T00:25:14;15.80;;;8.57;;
51981;SDS011;37998;53.416;6.730;2023-03-07T00:27:40;12.70;;;7.78;;
51981;SDS011;37998;53.416;6.730;2023-03-07T00:30:06;12.23;;;7.10;;
51981;SDS011;37998;53.416;6.730;2023-03-07T00:32:33;14.02;;;7.03;;
51981;SDS011;37998;53.416;6.730;2023-03-07T00:34:59;12.85;;;5.90;;
51981;SDS011;37998;53.416;6.730;2023-03-07T00:37:26;9.48;;;4.65;;
51981;SDS011;37998;53.416;6.730;2023-03-07T00:39:51;12.70;;;4.63;;
51981;SDS011;37998;53.416;6.730;2023-03-07T00:42:18;11.65;;;4.22;;
51981;SDS011;37998;53.416;6.730;2023-03-07T00:44:43;14.13;;;4.03;;
51981;SDS011;37998;53.416;6.730;2023-03-07T00:47:09;11.98;;;3.95;;
51981;SDS011;37998;53.416;6.730;2023-03-07T00:49:34;7.28;;;3.80;;
51981;SDS011;37998;53.416;6.730;2023-03-07T00:52:00;9.45;;;3.38;;
51981;SDS011;37998;53.416;6.730;2023-03-07T00:54:26;14.93;;;4.30;;
51981;SDS011;37998;53.416;6.730;2023-03-07T00:56:52;10.60;;;3.92;;
51981;SDS011;37998;53.416;6.730;2023-03-07T00:59:17;21.52;;;4.72;;
51981;SDS011;37998;53.416;6.730;2023-03-07T01:01:43;12.55;;;4.25;;
51981;SDS011;37998;53.416;6.730;2023-03-07T01:04:09;14.10;;;4.13;;
51981;SDS011;37998;53.416;6.730;2023-03-07T01:06:34;13.15;;;4.13;;
51981;SDS011;37998;53.416;6.730;2023-03-07T01:09:02;13.88;;;4.35;;
51981;SDS011;37998;53.416;6.730;2023-03-07T01:11:30;16.55;;;2.97;;
51981;SDS011;37998;53.416;6.730;2023-03-07T01:13:56;11.27;;;5.00;;
51981;SDS011;37998;53.416;6.730;2023-03-07T01:16:24;17.15;;;3.20;;
51981;SDS011;37998;53.416;6.730;2023-03-07T01:18:59;19.48;;;2.90;;
51981;SDS011;37998;53.416;6.730;2023-03-07T01:21:33;13.27;;;2.30;;
51981;SDS011;37998;53.416;6.730;2023-03-07T01:24:01;20.55;;;3.70;;
51981;SDS011;37998;53.416;6.730;2023-03-07T01:26:28;13.07;;;2.50;;
51981;SDS011;37998;53.416;6.730;2023-03-07T01:28:55;15.68;;;3.10;;
51981;SDS011;37998;53.416;6.730;2023-03-07T01:31:23;12.00;;;2.28;;
51981;SDS011;37998;53.416;6.730;2023-03-07T01:33:50;14.70;;;2.70;;
51981;SDS011;37998;53.416;6.730;2023-03-07T01:36:24;14.05;;;2.58;;
51981;SDS011;37998;53.416;6.730;2023-03-07T01:38:54;21.45;;;2.90;;
51981;SDS011;37998;53.416;6.730;2023-03-07T01:41:22;12.38;;;2.70;;
51981;SDS011;37998;53.416;6.730;2023-03-07T01:43:48;20.25;;;2.85;;
51981;SDS011;37998;53.416;6.730;2023-03-07T01:51:37;19.83;;;4.72;;
51981;SDS011;37998;53.416;6.730;2023-03-07T01:54:05;12.18;;;2.78;;
51981;SDS011;37998;53.416;6.730;2023-03-07T01:56:33;13.05;;;2.80;;
51981;SDS011;37998;53.416;6.730;2023-03-07T01:59:00;18.17;;;2.85;;
51981;SDS011;37998;53.416;6.730;2023-03-07T02:01:26;19.00;;;2.40;;
51981;SDS011;37998;53.416;6.730;2023-03-07T02:04:08;8.30;;;2.38;;
51981;SDS011;37998;53.416;6.730;2023-03-07T02:06:39;13.05;;;2.75;;
51981;SDS011;37998;53.416;6.730;2023-03-07T02:09:06;17.05;;;2.80;;
51981;SDS011;37998;53.416;6.730;2023-03-07T02:11:38;11.98;;;2.33;;
51981;SDS011;37998;53.416;6.730;2023-03-07T02:14:05;13.45;;;3.28;;
51981;SDS011;37998;53.416;6.730;2023-03-07T02:16:31;11.93;;;2.47;;
51981;SDS011;37998;53.416;6.730;2023-03-07T02:18:56;15.50;;;2.38;;
51981;SDS011;37998;53.416;6.730;2023-03-07T02:21:57;10.65;;;2.67;;
51981;SDS011;37998;53.416;6.730;2023-03-07T02:24:30;10.23;;;1.95;;
51981;SDS011;37998;53.416;6.730;2023-03-07T02:26:58;17.88;;;2.72;;
51981;SDS011;37998;53.416;6.730;2023-03-07T02:29:24;12.93;;;2.58;;
51981;SDS011;37998;53.416;6.730;2023-03-07T02:31:49;11.45;;;2.10;;
51981;SDS011;37998;53.416;6.730;2023-03-07T02:34:19;11.77;;;2.72;;
51981;SDS011;37998;53.416;6.730;2023-03-07T02:36:46;11.68;;;2.40;;
51981;SDS011;37998;53.416;6.730;2023-03-07T02:39:14;14.60;;;2.38;;
51981;SDS011;37998;53.416;6.730;2023-03-07T02:41:40;11.40;;;2.58;;
51981;SDS011;37998;53.416;6.730;2023-03-07T02:44:06;13.63;;;2.10;;
51981;SDS011;37998;53.416;6.730;2023-03-07T02:46:32;6.22;;;1.65;;
51981;SDS011;37998;53.416;6.730;2023-03-07T02:48:57;12.57;;;3.25;;
51981;SDS011;37998;53.416;6.730;2023-03-07T02:51:23;12.88;;;2.42;;
51981;SDS011;37998;53.416;6.730;2023-03-07T02:53:49;4.63;;;1.77;;
51981;SDS011;37998;53.416;6.730;2023-03-07T02:56:14;7.20;;;2.20;;
51981;SDS011;37998;53.416;6.730;2023-03-07T02:58:40;13.35;;;2.13;;
51981;SDS011;37998;53.416;6.730;2023-03-07T03:01:05;11.48;;;3.30;;
51981;SDS011;37998;53.416;6.730;2023-03-07T03:03:31;10.70;;;2.10;;
51981;SDS011;37998;53.416;6.730;2023-03-07T03:05:57;10.75;;;2.45;;
51981;SDS011;37998;53.416;6.730;2023-03-07T03:08:22;10.63;;;2.53;;
51981;SDS011;37998;53.416;6.730;2023-03-07T03:10:54;9.57;;;2.33;;
51981;SDS011;37998;53.416;6.730;2023-03-07T03:13:20;10.32;;;2.40;;
51981;SDS011;37998;53.416;6.730;2023-03-07T03:15:46;12.00;;;2.90;;
51981;SDS011;37998;53.416;6.730;2023-03-07T03:18:12;8.43;;;2.17;;
51981;SDS011;37998;53.416;6.730;2023-03-07T03:20:38;8.63;;;2.20;;
51981;SDS011;37998;53.416;6.730;2023-03-07T03:23:05;9.88;;;2.50;;
51981;SDS011;37998;53.416;6.730;2023-03-07T03:25:30;10.68;;;2.47;;
51981;SDS011;37998;53.416;6.730;2023-03-07T03:27:56;15.65;;;2.35;;
51981;SDS011;37998;53.416;6.730;2023-03-07T03:30:21;13.07;;;2.30;;
51981;SDS011;37998;53.416;6.730;2023-03-07T03:32:47;5.30;;;1.92;;
51981;SDS011;37998;53.416;6.730;2023-03-07T03:35:13;6.55;;;2.10;;
51981;SDS011;37998;53.416;6.730;2023-03-07T03:37:39;7.38;;;2.58;;
51981;SDS011;37998;53.416;6.730;2023-03-07T03:40:05;6.65;;;1.70;;
51981;SDS011;37998;53.416;6.730;2023-03-07T03:42:38;13.43;;;1.80;;
51981;SDS011;37998;53.416;6.730;2023-03-07T03:45:08;8.82;;;2.22;;
51981;SDS011;37998;53.416;6.730;2023-03-07T03:47:35;11.15;;;2.20;;
51981;SDS011;37998;53.416;6.730;2023-03-07T03:50:01;7.72;;;2.10;;
51981;SDS011;37998;53.416;6.730;2023-03-07T03:52:26;8.95;;;2.03;;
51981;SDS011;37998;53.416;6.730;2023-03-07T03:54:52;10.55;;;2.60;;
51981;SDS011;37998;53.416;6.730;2023-03-07T03:57:17;9.13;;;2.60;;
51981;SDS011;37998;53.416;6.730;2023-03-07T03:59:44;9.38;;;2.50;;
51981;SDS011;37998;53.416;6.730;2023-03-07T04:02:11;9.63;;;2.40;;
51981;SDS011;37998;53.416;6.730;2023-03-07T04:04:37;11.82;;;2.63;;
51981;SDS011;37998;53.416;6.730;2023-03-07T04:07:03;8.20;;;2.35;;
51981;SDS011;37998;53.416;6.730;2023-03-07T04:09:29;8.65;;;2.45;;
51981;SDS011;37998;53.416;6.730;2023-03-07T04:11:55;8.70;;;3.42;;
51981;SDS011;37998;53.416;6.730;2023-03-07T04:14:21;8.80;;;2.70;;
51981;SDS011;37998;53.416;6.730;2023-03-07T04:16:47;9.13;;;2.03;;
51981;SDS011;37998;53.416;6.730;2023-03-07T04:19:13;12.48;;;3.17;;
51981;SDS011;37998;53.416;6.730;2023-03-07T04:21:39;9.52;;;2.25;;
51981;SDS011;37998;53.416;6.730;2023-03-07T04:24:08;10.40;;;3.08;;
51981;SDS011;37998;53.416;6.730;2023-03-07T04:26:34;12.32;;;2.80;;
51981;SDS011;37998;53.416;6.730;2023-03-07T04:29:00;13.30;;;3.03;;
51981;SDS011;37998;53.416;6.730;2023-03-07T04:31:26;10.55;;;2.28;;
51981;SDS011;37998;53.416;6.730;2023-03-07T04:33:53;11.10;;;2.50;;
51981;SDS011;37998;53.416;6.730;2023-03-07T04:36:20;8.85;;;2.38;;
51981;SDS011;37998;53.416;6.730;2023-03-07T04:38:47;12.90;;;2.70;;
51981;SDS011;37998;53.416;6.730;2023-03-07T04:41:14;7.30;;;2.33;;
51981;SDS011;37998;53.416;6.730;2023-03-07T04:43:41;11.52;;;3.15;;
51981;SDS011;37998;53.416;6.730;2023-03-07T04:46:07;5.25;;;1.65;;
51981;SDS011;37998;53.416;6.730;2023-03-07T04:48:33;9.65;;;2.38;;
51981;SDS011;37998;53.416;6.730;2023-03-07T04:50:59;5.78;;;1.50;;
51981;SDS011;37998;53.416;6.730;2023-03-07T04:53:25;2.97;;;1.58;;
51981;SDS011;37998;53.416;6.730;2023-03-07T04:55:55;8.55;;;1.90;;
51981;SDS011;37998;53.416;6.730;2023-03-07T04:58:22;6.32;;;1.60;;
51981;SDS011;37998;53.416;6.730;2023-03-07T05:00:48;5.13;;;1.70;;
51981;SDS011;37998;53.416;6.730;2023-03-07T05:03:13;5.25;;;1.67;;
51981;SDS011;37998;53.416;6.730;2023-03-07T05:05:39;9.18;;;1.60;;
51981;SDS011;37998;53.416;6.730;2023-03-07T05:08:05;6.63;;;1.90;;
51981;SDS011;37998;53.416;6.730;2023-03-07T05:10:32;8.60;;;2.92;;
51981;SDS011;37998;53.416;6.730;2023-03-07T05:12:58;9.63;;;1.95;;
51981;SDS011;37998;53.416;6.730;2023-03-07T05:15:24;8.80;;;2.63;;
51981;SDS011;37998;53.416;6.730;2023-03-07T05:17:50;11.23;;;2.60;;
51981;SDS011;37998;53.416;6.730;2023-03-07T05:20:15;7.28;;;2.17;;
51981;SDS011;37998;53.416;6.730;2023-03-07T05:22:41;10.95;;;2.47;;
51981;SDS011;37998;53.416;6.730;2023-03-07T05:25:07;10.85;;;2.53;;
51981;SDS011;37998;53.416;6.730;2023-03-07T05:27:33;11.38;;;2.42;;
51981;SDS011;37998;53.416;6.730;2023-03-07T05:29:59;8.98;;;2.10;;
51981;SDS011;37998;53.416;6.730;2023-03-07T05:32:24;4.05;;;1.50;;
51981;SDS011;37998;53.416;6.730;2023-03-07T05:34:50;4.50;;;1.50;;
51981;SDS011;37998;53.416;6.730;2023-03-07T05:37:16;4.28;;;1.17;;
51981;SDS011;37998;53.416;6.730;2023-03-07T05:39:42;5.43;;;1.50;;
51981;SDS011;37998;53.416;6.730;2023-03-07T05:42:07;5.95;;;1.65;;
51981;SDS011;37998;53.416;6.730;2023-03-07T05:44:33;5.85;;;1.60;;
51981;SDS011;37998;53.416;6.730;2023-03-07T05:46:59;7.15;;;2.22;;
51981;SDS011;37998;53.416;6.730;2023-03-07T05:49:25;10.50;;;1.70;;
51981;SDS011;37998;53.416;6.730;2023-03-07T05:51:50;5.53;;;1.88;;
51981;SDS011;37998;53.416;6.730;2023-03-07T05:54:16;9.15;;;2.03;;
51981;SDS011;37998;53.416;6.730;2023-03-07T05:56:42;5.50;;;1.55;;
51981;SDS011;37998;53.416;6.730;2023-03-07T05:59:08;4.78;;;1.67;;
51981;SDS011;37998;53.416;6.730;2023-03-07T06:01:36;4.30;;;1.58;;
51981;SDS011;37998;53.416;6.730;2023-03-07T06:04:03;5.35;;;1.48;;
51981;SDS011;37998;53.416;6.730;2023-03-07T06:06:28;5.80;;;1.80;;
51981;SDS011;37998;53.416;6.730;2023-03-07T06:08:54;8.50;;;1.95;;
51981;SDS011;37998;53.416;6.730;2023-03-07T06:11:20;10.65;;;1.80;;
51981;SDS011;37998;53.416;6.730;2023-03-07T06:13:45;5.97;;;1.80;;
51981;SDS011;37998;53.416;6.730;2023-03-07T06:16:11;11.93;;;1.95;;
51981;SDS011;37998;53.416;6.730;2023-03-07T06:18:36;6.05;;;1.52;;
51981;SDS011;37998;53.416;6.730;2023-03-07T06:21:03;5.45;;;2.15;;
51981;SDS011;37998;53.416;6.730;2023-03-07T06:23:31;5.97;;;1.70;;
51981;SDS011;37998;53.416;6.730;2023-03-07T06:25:58;7.70;;;2.15;;
51981;SDS011;37998;53.416;6.730;2023-03-07T06:28:24;11.32;;;2.22;;
51981;SDS011;37998;53.416;6.730;2023-03-07T06:30:51;13.05;;;2.38;;
51981;SDS011;37998;53.416;6.730;2023-03-07T06:33:17;7.45;;;2.38;;
51981;SDS011;37998;53.416;6.730;2023-03-07T06:35:42;14.50;;;3.05;;
51981;SDS011;37998;53.416;6.730;2023-03-07T06:38:09;15.35;;;3.08;;
51981;SDS011;37998;53.416;6.730;2023-03-07T06:40:36;9.43;;;2.58;;
51981;SDS011;37998;53.416;6.730;2023-03-07T06:43:02;8.23;;;2.28;;
51981;SDS011;37998;53.416;6.730;2023-03-07T06:45:28;13.80;;;2.55;;
51981;SDS011;37998;53.416;6.730;2023-03-07T06:47:54;10.38;;;3.05;;
51981;SDS011;37998;53.416;6.730;2023-03-07T06:50:19;14.40;;;2.70;;
51981;SDS011;37998;53.416;6.730;2023-03-07T06:52:45;7.28;;;2.10;;
51981;SDS011;37998;53.416;6.730;2023-03-07T06:55:13;6.65;;;2.05;;
51981;SDS011;37998;53.416;6.730;2023-03-07T06:57:39;12.20;;;2.38;;
51981;SDS011;37998;53.416;6.730;2023-03-07T07:00:06;9.93;;;3.15;;
51981;SDS011;37998;53.416;6.730;2023-03-07T07:02:33;8.90;;;2.30;;
51981;SDS011;37998;53.416;6.730;2023-03-07T07:04:59;15.80;;;2.70;;
51981;SDS011;37998;53.416;6.730;2023-03-07T07:07:24;10.63;;;2.30;;
51981;SDS011;37998;53.416;6.730;2023-03-07T07:09:50;15.13;;;2.63;;
51981;SDS011;37998;53.416;6.730;2023-03-07T07:12:16;14.38;;;2.33;;
51981;SDS011;37998;53.416;6.730;2023-03-07T07:14:43;12.20;;;2.83;;
51981;SDS011;37998;53.416;6.730;2023-03-07T07:17:08;11.70;;;2.25;;
51981;SDS011;37998;53.416;6.730;2023-03-07T07:19:34;8.07;;;2.42;;
51981;SDS011;37998;53.416;6.730;2023-03-07T07:22:00;12.48;;;2.58;;
51981;SDS011;37998;53.416;6.730;2023-03-07T07:24:26;10.63;;;2.22;;
51981;SDS011;37998;53.416;6.730;2023-03-07T07:26:52;6.57;;;2.13;;
51981;SDS011;37998;53.416;6.730;2023-03-07T07:29:18;13.00;;;3.05;;
51981;SDS011;37998;53.416;6.730;2023-03-07T07:31:44;12.60;;;3.25;;
51981;SDS011;37998;53.416;6.730;2023-03-07T07:34:10;14.20;;;3.00;;
51981;SDS011;37998;53.416;6.730;2023-03-07T07:36:36;15.95;;;2.97;;
51981;SDS011;37998;53.416;6.730;2023-03-07T07:39:02;16.10;;;2.72;;
51981;SDS011;37998;53.416;6.730;2023-03-07T07:41:30;11.45;;;2.45;;
51981;SDS011;37998;53.416;6.730;2023-03-07T07:43:56;17.35;;;3.00;;
51981;SDS011;37998;53.416;6.730;2023-03-07T07:46:22;11.10;;;2.60;;
51981;SDS011;37998;53.416;6.730;2023-03-07T07:48:47;10.70;;;1.85;;
51981;SDS011;37998;53.416;6.730;2023-03-07T07:51:13;13.95;;;3.00;;
51981;SDS011;37998;53.416;6.730;2023-03-07T07:53:39;16.15;;;2.97;;
51981;SDS011;37998;53.416;6.730;2023-03-07T07:56:05;12.27;;;2.58;;
51981;SDS011;37998;53.416;6.730;2023-03-07T07:58:31;10.95;;;3.05;;
51981;SDS011;37998;53.416;6.730;2023-03-07T08:00:56;13.15;;;3.05;;
51981;SDS011;37998;53.416;6.730;2023-03-07T08:03:22;10.73;;;2.28;;
51981;SDS011;37998;53.416;6.730;2023-03-07T08:05:48;6.40;;;2.30;;
51981;SDS011;37998;53.416;6.730;2023-03-07T08:08:15;10.13;;;2.08;;
51981;SDS011;37998;53.416;6.730;2023-03-07T08:10:42;9.02;;;1.95;;
51981;SDS011;37998;53.416;6.730;2023-03-07T08:13:12;9.55;;;2.28;;
51981;SDS011;37998;53.416;6.730;2023-03-07T08:15:40;6.35;;;1.85;;
51981;SDS011;37998;53.416;6.730;2023-03-07T08:18:06;12.68;;;3.53;;
51981;SDS011;37998;53.416;6.730;2023-03-07T08:20:32;13.55;;;2.15;;
51981;SDS011;37998;53.416;6.730;2023-03-07T08:22:57;10.20;;;2.88;;
51981;SDS011;37998;53.416;6.730;2023-03-07T08:25:23;9.35;;;2.10;;
51981;SDS011;37998;53.416;6.730;2023-03-07T08:27:50;10.75;;;2.50;;
51981;SDS011;37998;53.416;6.730;2023-03-07T08:30:26;7.03;;;2.53;;
51981;SDS011;37998;53.416;6.730;2023-03-07T08:32:53;12.70;;;2.35;;
51981;SDS011;37998;53.416;6.730;2023-03-07T08:35:19;7.72;;;2.13;;
51981;SDS011;37998;53.416;6.730;2023-03-07T08:37:46;6.30;;;2.10;;
51981;SDS011;37998;53.416;6.730;2023-03-07T08:40:13;7.78;;;2.70;;
51981;SDS011;37998;53.416;6.730;2023-03-07T08:42:40;13.85;;;2.83;;
51981;SDS011;37998;53.416;6.730;2023-03-07T08:45:07;11.52;;;2.17;;
51981;SDS011;37998;53.416;6.730;2023-03-07T08:47:33;6.85;;;2.00;;
51981;SDS011;37998;53.416;6.730;2023-03-07T08:49:59;6.63;;;2.20;;
51981;SDS011;37998;53.416;6.730;2023-03-07T08:52:25;10.77;;;2.35;;
51981;SDS011;37998;53.416;6.730;2023-03-07T08:54:50;8.60;;;2.42;;
51981;SDS011;37998;53.416;6.730;2023-03-07T08:57:16;9.75;;;2.08;;
51981;SDS011;37998;53.416;6.730;2023-03-07T08:59:42;13.52;;;2.47;;
51981;SDS011;37998;53.416;6.730;2023-03-07T09:02:09;8.02;;;2.10;;
51981;SDS011;37998;53.416;6.730;2023-03-07T09:04:35;7.63;;;3.05;;
51981;SDS011;37998;53.416;6.730;2023-03-07T09:07:01;6.25;;;2.25;;
51981;SDS011;37998;53.416;6.730;2023-03-07T09:09:28;8.45;;;2.00;;
51981;SDS011;37998;53.416;6.730;2023-03-07T09:11:55;14.23;;;2.78;;
51981;SDS011;37998;53.416;6.730;2023-03-07T09:14:21;12.05;;;2.30;;
51981;SDS011;37998;53.416;6.730;2023-03-07T09:16:46;6.95;;;2.10;;
51981;SDS011;37998;53.416;6.730;2023-03-07T09:19:12;5.82;;;2.05;;
51981;SDS011;37998;53.416;6.730;2023-03-07T09:21:37;5.93;;;2.25;;
51981;SDS011;37998;53.416;6.730;2023-03-07T09:24:04;7.97;;;2.13;;
51981;SDS011;37998;53.416;6.730;2023-03-07T09:26:29;14.90;;;2.35;;
51981;SDS011;37998;53.416;6.730;2023-03-07T09:28:55;8.38;;;1.95;;
51981;SDS011;37998;53.416;6.730;2023-03-07T09:31:21;6.22;;;1.80;;
51981;SDS011;37998;53.416;6.730;2023-03-07T09:33:46;7.47;;;2.00;;
51981;SDS011;37998;53.416;6.730;2023-03-07T09:36:13;7.63;;;2.22;;
51981;SDS011;37998;53.416;6.730;2023-03-07T09:38:39;7.82;;;1.63;;
51981;SDS011;37998;53.416;6.730;2023-03-07T09:49:39;10.25;;;2.38;;
51981;SDS011;37998;53.416;6.730;2023-03-07T09:52:12;8.07;;;1.95;;
51981;SDS011;37998;53.416;6.730;2023-03-07T09:55:03;8.80;;;2.03;;
51981;SDS011;37998;53.416;6.730;2023-03-07T09:57:46;4.40;;;1.80;;
51981;SDS011;37998;53.416;6.730;2023-03-07T10:02:55;8.45;;;1.70;;
51981;SDS011;37998;53.416;6.730;2023-03-07T10:05:44;5.28;;;1.73;;
51981;SDS011;37998;53.416;6.730;2023-03-07T10:08:31;5.55;;;2.10;;
51981;SDS011;37998;53.416;6.730;2023-03-07T10:22:02;8.93;;;2.42;;
51981;SDS011;37998;53.416;6.730;2023-03-07T10:27:25;4.20;;;1.73;;
51981;SDS011;37998;53.416;6.730;2023-03-07T10:29:53;6.75;;;1.90;;
51981;SDS011;37998;53.416;6.730;2023-03-07T10:43:14;8.50;;;2.00;;
51981;SDS011;37998;53.416;6.730;2023-03-07T10:45:52;8.55;;;1.83;;
51981;SDS011;37998;53.416;6.730;2023-03-07T10:48:27;9.63;;;1.80;;
51981;SDS011;37998;53.416;6.730;2023-03-07T10:53:59;11.35;;;2.65;;
51981;SDS011;37998;53.416;6.730;2023-03-07T10:56:25;9.18;;;1.90;;
51981;SDS011;37998;53.416;6.730;2023-03-07T10:59:04;7.70;;;2.15;;
51981;SDS011;37998;53.416;6.730;2023-03-07T11:01:33;5.25;;;1.50;;
51981;SDS011;37998;53.416;6.730;2023-03-07T11:04:05;4.90;;;1.42;;
51981;SDS011;37998;53.416;6.730;2023-03-07T11:09:21;5.15;;;1.73;;
51981;SDS011;37998;53.416;6.730;2023-03-07T11:11:54;6.15;;;2.05;;
51981;SDS011;37998;53.416;6.730;2023-03-07T11:14:29;5.90;;;1.95;;
51981;SDS011;37998;53.416;6.730;2023-03-07T11:17:15;4.45;;;1.50;;
51981;SDS011;37998;53.416;6.730;2023-03-07T11:19:45;6.18;;;1.52;;
51981;SDS011;37998;53.416;6.730;2023-03-07T11:22:18;3.72;;;1.52;;
51981;SDS011;37998;53.416;6.730;2023-03-07T11:27:50;5.68;;;2.13;;
51981;SDS011;37998;53.416;6.730;2023-03-07T11:32:51;6.85;;;1.60;;
51981;SDS011;37998;53.416;6.730;2023-03-07T11:35:21;5.15;;;1.40;;
51981;SDS011;37998;53.416;6.730;2023-03-07T11:38:04;6.13;;;1.67;;
51981;SDS011;37998;53.416;6.730;2023-03-07T11:40:44;5.97;;;1.70;;
51981;SDS011;37998;53.416;6.730;2023-03-07T11:43:29;8.17;;;2.27;;
51981;SDS011;37998;53.416;6.730;2023-03-07T11:46:04;11.38;;;1.98;;
51981;SDS011;37998;53.416;6.730;2023-03-07T11:51:44;5.18;;;1.30;;
51981;SDS011;37998;53.416;6.730;2023-03-07T11:54:21;11.50;;;2.10;;
51981;SDS011;37998;53.416;6.730;2023-03-07T11:56:59;8.45;;;1.70;;
51981;SDS011;37998;53.416;6.730;2023-03-07T12:02:24;2.53;;;1.20;;
51981;SDS011;37998;53.416;6.730;2023-03-07T12:10:58;7.85;;;1.75;;
51981;SDS011;37998;53.416;6.730;2023-03-07T12:14:06;7.72;;;1.50;;
51981;SDS011;37998;53.416;6.730;2023-03-07T12:22:17;6.65;;;1.63;;
51981;SDS011;37998;53.416;6.730;2023-03-07T12:24:58;5.60;;;1.77;;
51981;SDS011;37998;53.416;6.730;2023-03-07T12:27:35;5.32;;;1.50;;
51981;SDS011;37998;53.416;6.730;2023-03-07T12:32:43;14.27;;;1.92;;
51981;SDS011;37998;53.416;6.730;2023-03-07T12:35:25;12.52;;;2.22;;
51981;SDS011;37998;53.416;6.730;2023-03-07T12:37:59;4.75;;;1.73;;
51981;SDS011;37998;53.416;6.730;2023-03-07T12:40:39;7.38;;;1.70;;
51981;SDS011;37998;53.416;6.730;2023-03-07T12:43:15;10.23;;;2.03;;
51981;SDS011;37998;53.416;6.730;2023-03-07T12:45:49;12.13;;;1.80;;
51981;SDS011;37998;53.416;6.730;2023-03-07T12:48:21;8.35;;;2.95;;
51981;SDS011;37998;53.416;6.730;2023-03-07T12:51:10;7.88;;;2.05;;
51981;SDS011;37998;53.416;6.730;2023-03-07T12:59:11;4.13;;;1.40;;
51981;SDS011;37998;53.416;6.730;2023-03-07T13:04:35;6.50;;;1.35;;
51981;SDS011;37998;53.416;6.730;2023-03-07T13:07:19;7.40;;;1.88;;
51981;SDS011;37998;53.416;6.730;2023-03-07T13:09:54;7.50;;;1.73;;
51981;SDS011;37998;53.416;6.730;2023-03-07T13:12:35;7.18;;;1.45;;
51981;SDS011;37998;53.416;6.730;2023-03-07T13:27:55;7.13;;;1.63;;
51981;SDS011;37998;53.416;6.730;2023-03-07T13:30:22;5.95;;;1.33;;
51981;SDS011;37998;53.416;6.730;2023-03-07T13:42:57;3.95;;;1.15;;
51981;SDS011;37998;53.416;6.730;2023-03-07T13:48:06;8.25;;;1.70;;
51981;SDS011;37998;53.416;6.730;2023-03-07T13:53:16;6.45;;;1.90;;
51981;SDS011;37998;53.416;6.730;2023-03-07T13:55:52;5.25;;;1.50;;
51981;SDS011;37998;53.416;6.730;2023-03-07T13:58:27;7.32;;;1.30;;
51981;SDS011;37998;53.416;6.730;2023-03-07T14:00:57;5.57;;;1.60;;
51981;SDS011;37998;53.416;6.730;2023-03-07T14:03:26;6.72;;;1.30;;
51981;SDS011;37998;53.416;6.730;2023-03-07T14:05:57;3.10;;;1.20;;
51981;SDS011;37998;53.416;6.730;2023-03-07T14:08:27;2.55;;;1.17;;
51981;SDS011;37998;53.416;6.730;2023-03-07T14:10:57;2.58;;;0.90;;
51981;SDS011;37998;53.416;6.730;2023-03-07T14:18:54;3.97;;;1.20;;
51981;SDS011;37998;53.416;6.730;2023-03-07T14:24:21;3.78;;;1.15;;
51981;SDS011;37998;53.416;6.730;2023-03-07T14:27:03;3.00;;;1.40;;
51981;SDS011;37998;53.416;6.730;2023-03-07T14:29:30;3.88;;;1.20;;
51981;SDS011;37998;53.416;6.730;2023-03-07T14:31:56;3.28;;;2.42;;
51981;SDS011;37998;53.416;6.730;2023-03-07T14:34:28;4.75;;;2.60;;
51981;SDS011;37998;53.416;6.730;2023-03-07T14:50:26;5.80;;;2.28;;
51981;SDS011;37998;53.416;6.730;2023-03-07T14:52:55;2.83;;;1.35;;
51981;SDS011;37998;53.416;6.730;2023-03-07T14:55:36;7.35;;;1.55;;
51981;SDS011;37998;53.416;6.730;2023-03-07T14:58:05;5.20;;;1.40;;
51981;SDS011;37998;53.416;6.730;2023-03-07T15:00:31;7.82;;;2.65;;
51981;SDS011;37998;53.416;6.730;2023-03-07T15:03:03;1.25;;;1.02;;
51981;SDS011;37998;53.416;6.730;2023-03-07T15:07:59;3.20;;;1.60;;
51981;SDS011;37998;53.416;6.730;2023-03-07T15:10:33;3.85;;;1.30;;
51981;SDS011;37998;53.416;6.730;2023-03-07T15:13:05;2.92;;;1.20;;
51981;SDS011;37998;53.416;6.730;2023-03-07T15:15:47;3.33;;;1.52;;
51981;SDS011;37998;53.416;6.730;2023-03-07T15:18:23;4.03;;;1.20;;
51981;SDS011;37998;53.416;6.730;2023-03-07T15:20:53;4.85;;;1.50;;
51981;SDS011;37998;53.416;6.730;2023-03-07T15:23:21;3.22;;;1.08;;
51981;SDS011;37998;53.416;6.730;2023-03-07T15:25:53;4.50;;;1.30;;
51981;SDS011;37998;53.416;6.730;2023-03-07T15:28:34;5.30;;;1.85;;
51981;SDS011;37998;53.416;6.730;2023-03-07T15:31:02;2.70;;;1.40;;
51981;SDS011;37998;53.416;6.730;2023-03-07T15:33:29;5.80;;;1.67;;
51981;SDS011;37998;53.416;6.730;2023-03-07T15:38:40;6.60;;;1.20;;
51981;SDS011;37998;53.416;6.730;2023-03-07T15:46:52;2.10;;;1.23;;
51981;SDS011;37998;53.416;6.730;2023-03-07T15:51:58;3.40;;;1.10;;
51981;SDS011;37998;53.416;6.730;2023-03-07T15:54:34;4.30;;;1.40;;
51981;SDS011;37998;53.416;6.730;2023-03-07T15:57:16;7.03;;;1.20;;
51981;SDS011;37998;53.416;6.730;2023-03-07T16:00:04;3.70;;;1.10;;
51981;SDS011;37998;53.416;6.730;2023-03-07T16:02:42;4.80;;;1.15;;
51981;SDS011;37998;53.416;6.730;2023-03-07T16:07:45;3.27;;;1.20;;
51981;SDS011;37998;53.416;6.730;2023-03-07T16:10:11;1.63;;;1.30;;
51981;SDS011;37998;53.416;6.730;2023-03-07T16:12:37;3.80;;;1.20;;
51981;SDS011;37998;53.416;6.730;2023-03-07T16:15:17;3.90;;;1.30;;
51981;SDS011;37998;53.416;6.730;2023-03-07T16:17:44;1.77;;;1.10;;
51981;SDS011;37998;53.416;6.730;2023-03-07T16:20:16;1.50;;;1.33;;
51981;SDS011;37998;53.416;6.730;2023-03-07T16:22:43;3.15;;;1.85;;
51981;SDS011;37998;53.416;6.730;2023-03-07T16:25:11;2.83;;;1.77;;
51981;SDS011;37998;53.416;6.730;2023-03-07T16:27:37;3.40;;;1.42;;
51981;SDS011;37998;53.416;6.730;2023-03-07T16:30:13;4.57;;;1.38;;
51981;SDS011;37998;53.416;6.730;2023-03-07T16:32:41;5.95;;;1.70;;
51981;SDS011;37998;53.416;6.730;2023-03-07T16:35:12;3.50;;;1.40;;
51981;SDS011;37998;53.416;6.730;2023-03-07T16:37:39;2.72;;;1.15;;
51981;SDS011;37998;53.416;6.730;2023-03-07T16:40:05;2.25;;;1.17;;
51981;SDS011;37998;53.416;6.730;2023-03-07T16:42:32;1.65;;;1.10;;
51981;SDS011;37998;53.416;6.730;2023-03-07T16:44:58;2.90;;;0.70;;
51981;SDS011;37998;53.416;6.730;2023-03-07T16:47:24;1.75;;;0.75;;
51981;SDS011;37998;53.416;6.730;2023-03-07T16:49:49;1.48;;;0.80;;
51981;SDS011;37998;53.416;6.730;2023-03-07T16:52:15;1.88;;;1.10;;
51981;SDS011;37998;53.416;6.730;2023-03-07T16:54:41;1.30;;;0.93;;
51981;SDS011;37998;53.416;6.730;2023-03-07T16:57:10;3.22;;;1.10;;
51981;SDS011;37998;53.416;6.730;2023-03-07T16:59:38;0.93;;;0.93;;
51981;SDS011;37998;53.416;6.730;2023-03-07T17:02:15;1.35;;;1.10;;
51981;SDS011;37998;53.416;6.730;2023-03-07T17:04:43;6.35;;;1.50;;
51981;SDS011;37998;53.416;6.730;2023-03-07T17:07:18;4.70;;;1.27;;
51981;SDS011;37998;53.416;6.730;2023-03-07T17:09:48;3.80;;;1.38;;
51981;SDS011;37998;53.416;6.730;2023-03-07T17:12:14;4.28;;;1.10;;
51981;SDS011;37998;53.416;6.730;2023-03-07T17:14:40;5.35;;;1.17;;
51981;SDS011;37998;53.416;6.730;2023-03-07T17:17:06;7.22;;;1.40;;
51981;SDS011;37998;53.416;6.730;2023-03-07T17:19:35;4.90;;;1.15;;